createdAt,value
2022-12-26T00:01:25.450Z,46.80
2022-12-26T00:03:54.273Z,49.73
2022-12-26T00:06:26.284Z,48.83
2022-12-26T00:08:55.924Z,50.07
2022-12-26T00:11:25.581Z,50.90
2022-12-26T00:13:56.156Z,49.70
2022-12-26T00:16:25.546Z,49.40
2022-12-26T00:18:54.493Z,51.47
2022-12-26T00:21:27.203Z,48.57
2022-12-26T00:23:57.007Z,50.53
2022-12-26T00:26:27.212Z,47.67
2022-12-26T00:28:56.223Z,51.07
2022-12-26T00:31:26.565Z,49.57
2022-12-26T00:33:55.246Z,51.30
2022-12-26T00:36:28.102Z,49.73
2022-12-26T00:38:57.072Z,49.57
2022-12-26T00:41:25.502Z,49.53
2022-12-26T00:43:53.887Z,47.90
2022-12-26T00:46:26.291Z,49.67
2022-12-26T00:48:54.992Z,49.60
2022-12-26T00:51:24.835Z,49.67
2022-12-26T00:53:53.306Z,49.50
2022-12-26T00:56:21.654Z,48.37
2022-12-26T00:58:49.955Z,49.77
2022-12-26T01:01:20.954Z,46.70
2022-12-26T01:03:51.742Z,50.47
2022-12-26T01:06:20.345Z,47.80
2022-12-26T01:08:50.127Z,46.37
2022-12-26T01:11:40.367Z,46.20
2022-12-26T01:14:11.357Z,47.77
2022-12-26T01:16:40.447Z,47.00
2022-12-26T01:19:08.982Z,49.17
2022-12-26T01:21:37.404Z,45.93
2022-12-26T01:24:08.007Z,46.57
2022-12-26T01:26:36.401Z,46.63
2022-12-26T01:29:04.666Z,45.60
2022-12-26T01:31:33.123Z,48.40
2022-12-26T01:34:01.553Z,44.30
2022-12-26T01:36:29.854Z,49.33
2022-12-26T01:38:58.136Z,48.17
2022-12-26T01:41:28.123Z,46.10
2022-12-26T01:43:58.923Z,49.37
2022-12-26T01:46:32.486Z,47.67
2022-12-26T01:49:07.710Z,48.33
2022-12-26T01:51:40.612Z,48.00
2022-12-26T01:54:41.372Z,46.77
2022-12-26T01:57:03.604Z,45.40
2022-12-26T01:59:34.651Z,43.83
2022-12-26T02:02:04.461Z,46.60
2022-12-26T02:04:53.960Z,44.70
2022-12-26T02:07:22.788Z,43.20
2022-12-26T02:09:51.355Z,44.60
2022-12-26T02:12:36.140Z,45.43
2022-12-26T02:15:09.343Z,43.17
2022-12-26T02:17:38.965Z,47.20
2022-12-26T02:20:17.731Z,44.13
2022-12-26T02:23:27.887Z,46.40
2022-12-26T02:26:35.358Z,45.13
2022-12-26T02:29:38.514Z,48.23
2022-12-26T02:32:15.306Z,46.67
2022-12-26T02:34:53.656Z,48.07
2022-12-26T02:37:37.988Z,47.77
2022-12-26T02:40:23.968Z,46.53
2022-12-26T02:43:00.235Z,40.70
2022-12-26T02:45:56.050Z,35.93
2022-12-26T02:48:35.283Z,37.70
2022-12-26T02:51:32.180Z,40.13
2022-12-26T02:54:29.933Z,39.33
2022-12-26T02:57:20.093Z,40.60
2022-12-26T03:00:12.353Z,41.63
2022-12-26T03:03:03.170Z,44.23
2022-12-26T03:05:54.683Z,44.30
2022-12-26T03:08:46.940Z,41.33
2022-12-26T03:11:32.932Z,37.90
2022-12-26T03:14:09.364Z,39.70
2022-12-26T03:16:55.277Z,37.37
2022-12-26T03:19:26.617Z,35.77
2022-12-26T03:21:58.470Z,34.83
2022-12-26T03:24:49.014Z,36.20
2022-12-26T03:27:16.413Z,34.63
2022-12-26T03:30:03.649Z,34.43
2022-12-26T03:32:44.592Z,34.20
2022-12-26T03:35:14.520Z,35.90
2022-12-26T03:37:53.845Z,34.10
2022-12-26T03:41:06.088Z,33.10
2022-12-26T03:44:37.284Z,33.17
2022-12-26T03:47:35.454Z,36.17
2022-12-26T03:50:33.233Z,34.50
2022-12-26T03:53:27.614Z,35.60
2022-12-26T03:56:18.067Z,35.27
2022-12-26T03:59:09.182Z,34.87
2022-12-26T04:01:58.865Z,35.07
2022-12-26T04:04:49.950Z,35.60
2022-12-26T04:07:56.267Z,34.67
2022-12-26T04:10:51.267Z,33.20
2022-12-26T04:13:41.359Z,33.97
2022-12-26T04:16:35.375Z,34.50
2022-12-26T04:19:26.206Z,34.93
2022-12-26T04:22:20.505Z,34.03
2022-12-26T04:25:11.642Z,35.60
2022-12-26T04:27:58.898Z,35.70
2022-12-26T04:30:44.879Z,33.97
2022-12-26T04:33:38.642Z,33.07
2022-12-26T04:36:29.787Z,32.77
2022-12-26T04:39:19.639Z,34.13
2022-12-26T04:42:06.724Z,31.80
2022-12-26T04:44:37.996Z,34.17
2022-12-26T04:47:06.317Z,31.60
2022-12-26T04:50:01.312Z,33.00
2022-12-26T04:52:50.476Z,32.73
2022-12-26T04:55:19.446Z,32.47
2022-12-26T04:57:48.520Z,32.97
2022-12-26T05:00:18.923Z,31.87
2022-12-26T05:03:04.680Z,33.30
2022-12-26T05:05:54.801Z,32.57
2022-12-26T05:08:44.256Z,34.07
2022-12-26T05:11:12.549Z,33.07
2022-12-26T05:13:40.929Z,32.83
2022-12-26T05:16:27.378Z,33.87
2022-12-26T05:19:13.113Z,30.60
2022-12-26T05:21:59.248Z,31.70
2022-12-26T05:24:51.025Z,31.40
2022-12-26T05:27:37.729Z,29.40
2022-12-26T05:30:07.927Z,29.47
2022-12-26T05:32:54.986Z,30.60
2022-12-26T05:35:23.536Z,32.30
2022-12-26T05:37:51.839Z,33.57
2022-12-26T05:40:20.214Z,33.10
2022-12-26T05:42:48.502Z,34.60
2022-12-26T05:45:17.021Z,32.77
2022-12-26T05:47:51.670Z,33.90
2022-12-26T05:50:20.543Z,31.83
2022-12-26T05:52:48.859Z,32.83
2022-12-26T05:55:17.705Z,28.57
2022-12-26T05:57:46.023Z,28.80
2022-12-26T06:00:15.795Z,27.03
2022-12-26T06:02:44.686Z,28.20
2022-12-26T06:05:14.529Z,30.47
2022-12-26T06:07:42.873Z,29.00
2022-12-26T06:10:11.723Z,28.10
2022-12-26T06:12:40.127Z,27.10
2022-12-26T06:15:09.344Z,29.30
2022-12-26T06:17:37.656Z,28.97
2022-12-26T06:20:07.211Z,27.43
2022-12-26T06:22:36.923Z,27.87
2022-12-26T06:25:05.790Z,27.10
2022-12-26T06:27:34.087Z,27.70
2022-12-26T06:30:03.383Z,27.77
2022-12-26T06:32:32.097Z,26.97
2022-12-26T06:35:00.485Z,27.23
2022-12-26T06:37:28.848Z,26.93
2022-12-26T06:39:58.487Z,26.13
2022-12-26T06:42:26.776Z,26.03
2022-12-26T06:44:55.212Z,25.93
2022-12-26T06:47:23.549Z,25.10
2022-12-26T06:49:51.964Z,26.10
2022-12-26T06:52:20.321Z,24.23
2022-12-26T06:54:48.734Z,23.63
2022-12-26T06:57:18.520Z,25.23
2022-12-26T06:59:46.957Z,26.10
2022-12-26T07:02:15.497Z,24.40
2022-12-26T07:04:44.006Z,23.00
2022-12-26T07:07:12.387Z,26.30
2022-12-26T07:09:40.709Z,25.27
2022-12-26T07:12:09.065Z,25.97
2022-12-26T07:14:39.400Z,25.33
2022-12-26T07:17:07.779Z,25.57
2022-12-26T07:19:36.109Z,26.07
2022-12-26T07:22:04.478Z,25.23
2022-12-26T07:24:32.795Z,23.57
2022-12-26T07:27:01.132Z,22.50
2022-12-26T07:29:29.498Z,22.73
2022-12-26T07:31:59.366Z,21.40
2022-12-26T07:34:31.574Z,23.03
2022-12-26T07:37:01.787Z,22.37
2022-12-26T07:39:30.111Z,21.03
2022-12-26T07:41:58.513Z,20.27
2022-12-26T07:44:27.409Z,18.33
2022-12-26T07:46:56.666Z,19.10
2022-12-26T07:49:26.547Z,20.10
2022-12-26T07:51:54.921Z,19.83
2022-12-26T07:54:23.712Z,19.73
2022-12-26T07:56:52.037Z,19.90
2022-12-26T07:59:20.552Z,18.00
2022-12-26T08:01:49.042Z,18.97
2022-12-26T08:04:17.517Z,16.67
2022-12-26T08:06:48.753Z,17.43
2022-12-26T08:09:17.220Z,16.77
2022-12-26T08:11:45.857Z,15.27
2022-12-26T08:14:16.874Z,17.97
2022-12-26T08:16:51.445Z,18.30
2022-12-26T08:19:21.973Z,17.60
2022-12-26T08:21:51.774Z,18.80
2022-12-26T08:24:20.733Z,19.00
2022-12-26T08:26:49.084Z,20.87
2022-12-26T08:29:17.590Z,22.37
2022-12-26T08:31:46.018Z,20.10
2022-12-26T08:34:14.671Z,22.87
2022-12-26T08:36:43.077Z,21.47
2022-12-26T08:39:12.917Z,20.97
2022-12-26T08:41:41.332Z,22.60
2022-12-26T08:44:27.545Z,22.23
2022-12-26T08:46:56.573Z,23.17
2022-12-26T08:49:24.933Z,22.70
2022-12-26T08:51:53.404Z,24.10
2022-12-26T08:54:24.575Z,23.80
2022-12-26T08:56:52.913Z,23.70
2022-12-26T08:59:21.406Z,23.77
2022-12-26T09:01:49.931Z,24.97
2022-12-26T09:04:18.418Z,25.10
2022-12-26T09:06:46.744Z,25.67
2022-12-26T09:09:15.165Z,28.50
2022-12-26T09:11:45.254Z,25.70
2022-12-26T09:14:13.689Z,26.53
2022-12-26T09:16:49.733Z,26.97
2022-12-26T09:19:19.398Z,25.00
2022-12-26T09:21:48.634Z,26.40
2022-12-26T09:24:18.596Z,25.40
2022-12-26T09:26:48.792Z,25.90
2022-12-26T09:29:17.140Z,24.13
2022-12-26T09:31:45.465Z,25.20
2022-12-26T09:34:13.797Z,25.27
2022-12-26T09:37:25.741Z,27.70
2022-12-26T09:39:54.152Z,27.80
2022-12-26T09:42:33.677Z,27.20
2022-12-26T09:45:09.997Z,29.20
2022-12-26T09:47:48.089Z,31.00
2022-12-26T09:50:21.680Z,33.80
2022-12-26T09:52:51.788Z,33.20
2022-12-26T09:55:30.853Z,36.87
2022-12-26T09:58:05.756Z,34.70
2022-12-26T10:00:40.389Z,37.70
2022-12-26T10:03:11.807Z,37.67
2022-12-26T10:05:44.167Z,37.53
2022-12-26T10:08:25.000Z,39.00
2022-12-26T10:11:02.119Z,36.43
2022-12-26T10:13:38.244Z,37.33
2022-12-26T10:16:12.625Z,37.87
2022-12-26T10:18:54.658Z,38.53
2022-12-26T10:21:34.904Z,37.50
2022-12-26T10:24:09.832Z,43.87
2022-12-26T10:26:41.823Z,47.83
2022-12-26T10:29:21.244Z,50.43
2022-12-26T10:31:53.496Z,48.03
2022-12-26T10:34:26.981Z,46.33
2022-12-26T10:37:00.881Z,45.60
2022-12-26T10:39:36.472Z,49.87
2022-12-26T10:42:13.037Z,45.50
2022-12-26T10:44:42.847Z,46.70
2022-12-26T10:47:22.192Z,41.50
2022-12-26T10:49:50.647Z,42.63
2022-12-26T10:52:26.980Z,40.97
2022-12-26T10:55:29.653Z,41.90
2022-12-26T10:57:51.416Z,42.37
2022-12-26T11:00:24.028Z,43.53
2022-12-26T11:03:07.579Z,49.47
2022-12-26T11:08:32.086Z,47.30
2022-12-26T11:11:08.100Z,47.03
2022-12-26T11:13:40.360Z,46.57
2022-12-26T11:16:11.319Z,45.77
2022-12-26T11:18:47.880Z,44.20
2022-12-26T11:21:25.649Z,44.60
2022-12-26T11:24:11.538Z,46.63
2022-12-26T11:26:40.267Z,46.40
2022-12-26T11:29:13.049Z,45.07
2022-12-26T11:31:44.983Z,47.27
2022-12-26T11:34:21.778Z,43.27
2022-12-26T11:36:51.833Z,42.57
2022-12-26T11:39:25.670Z,45.27
2022-12-26T11:41:55.091Z,47.60
2022-12-26T11:44:27.853Z,48.13
2022-12-26T11:47:00.551Z,46.73
2022-12-26T11:49:33.365Z,47.13
2022-12-26T11:52:03.483Z,48.30
2022-12-26T11:54:36.053Z,48.60
2022-12-26T11:57:16.247Z,47.80
2022-12-26T11:59:45.022Z,47.77
2022-12-26T12:02:32.175Z,50.40
2022-12-26T12:05:03.752Z,49.27
2022-12-26T12:07:44.746Z,50.93
2022-12-26T12:10:47.884Z,47.30
2022-12-26T12:13:36.649Z,46.17
2022-12-26T12:16:27.465Z,49.77
2022-12-26T12:19:08.374Z,49.27
2022-12-26T12:21:44.864Z,47.70
2022-12-26T12:24:32.180Z,46.93
2022-12-26T12:27:06.219Z,45.17
2022-12-26T12:29:47.562Z,45.83
2022-12-26T12:32:22.996Z,44.43
2022-12-26T12:35:14.511Z,47.00
2022-12-26T12:38:02.413Z,45.27
2022-12-26T12:40:42.616Z,44.93
2022-12-26T12:43:21.072Z,46.90
2022-12-26T12:45:57.625Z,45.80
2022-12-26T12:48:40.853Z,47.03
2022-12-26T12:51:19.578Z,46.60
2022-12-26T12:54:04.375Z,44.27
2022-12-26T12:56:42.415Z,45.43
2022-12-26T12:59:20.763Z,45.97
2022-12-26T13:01:54.015Z,46.80
2022-12-26T13:04:27.936Z,47.60
2022-12-26T13:07:03.369Z,46.07
2022-12-26T13:09:37.773Z,47.80
2022-12-26T13:12:09.401Z,45.87
2022-12-26T13:14:41.084Z,49.60
2022-12-26T13:17:14.407Z,48.07
2022-12-26T13:19:51.548Z,45.50
2022-12-26T13:22:52.314Z,47.30
2022-12-26T13:25:23.220Z,46.50
2022-12-26T13:27:54.318Z,46.67
2022-12-26T13:30:23.324Z,48.43
2022-12-26T13:32:57.211Z,48.30
2022-12-26T13:35:55.615Z,45.67
2022-12-26T13:38:26.705Z,47.17
2022-12-26T13:41:20.806Z,48.13
2022-12-26T13:44:03.038Z,47.50
2022-12-26T13:46:38.221Z,48.50
2022-12-26T13:49:26.554Z,47.57
2022-12-26T13:51:58.005Z,49.30
2022-12-26T13:54:29.831Z,50.87
2022-12-26T13:57:36.998Z,49.70
2022-12-26T14:00:24.240Z,50.57
2022-12-26T14:03:29.444Z,53.23
2022-12-26T14:06:42.410Z,50.13
2022-12-26T14:09:30.399Z,51.27
2022-12-26T14:12:25.858Z,51.40
2022-12-26T14:15:09.747Z,51.37
2022-12-26T14:17:47.080Z,52.27
2022-12-26T14:20:32.893Z,52.10
2022-12-26T14:23:29.027Z,50.73
2022-12-26T14:26:04.098Z,49.50
2022-12-26T14:28:55.007Z,51.50
2022-12-26T14:31:32.068Z,53.63
2022-12-26T14:34:10.722Z,50.93
2022-12-26T14:36:48.301Z,49.30
2022-12-26T14:39:28.331Z,52.23
2022-12-26T14:42:40.350Z,53.60
2022-12-26T14:45:40.070Z,51.43
2022-12-26T14:48:41.741Z,54.63
2022-12-26T14:51:41.258Z,52.90
2022-12-26T14:54:50.733Z,52.47
2022-12-26T14:57:46.980Z,53.00
2022-12-26T15:00:28.472Z,55.53
2022-12-26T15:03:30.170Z,54.60
2022-12-26T15:06:18.605Z,52.90
2022-12-26T15:09:06.740Z,55.87
2022-12-26T15:12:01.641Z,53.10
2022-12-26T15:14:56.821Z,54.13
2022-12-26T15:17:39.091Z,60.60
2022-12-26T15:20:38.689Z,61.37
2022-12-26T15:23:51.964Z,57.47
2022-12-26T15:27:04.427Z,53.13
2022-12-26T15:29:51.953Z,51.00
2022-12-26T15:32:28.515Z,55.83
2022-12-26T15:35:13.330Z,61.07
2022-12-26T15:37:57.506Z,57.87
2022-12-26T15:40:28.661Z,56.90
2022-12-26T15:43:20.189Z,56.70
2022-12-26T15:45:54.168Z,53.97
2022-12-26T15:48:36.386Z,54.97
2022-12-26T15:51:10.698Z,54.17
2022-12-26T15:53:52.407Z,58.23
2022-12-26T15:56:51.397Z,55.50
2022-12-26T15:59:45.312Z,51.93
2022-12-26T16:02:16.030Z,51.17
2022-12-26T16:04:51.038Z,52.10
2022-12-26T16:07:28.977Z,58.83
2022-12-26T16:09:58.753Z,59.60
2022-12-26T16:12:29.114Z,54.63
2022-12-26T16:15:18.164Z,58.73
2022-12-26T16:17:48.930Z,54.90
2022-12-26T16:20:39.738Z,54.93
2022-12-26T16:23:15.135Z,54.00
2022-12-26T16:25:48.165Z,54.33
2022-12-26T16:28:17.353Z,53.73
2022-12-26T16:30:45.708Z,54.03
2022-12-26T16:33:16.078Z,55.67
2022-12-26T16:35:45.253Z,52.03
2022-12-26T16:38:17.665Z,56.27
2022-12-26T16:40:47.174Z,56.07
2022-12-26T16:43:28.015Z,54.80
2022-12-26T16:46:00.545Z,55.67
2022-12-26T16:48:30.824Z,54.43
2022-12-26T16:51:01.187Z,53.20
2022-12-26T16:53:45.659Z,56.33
2022-12-26T16:56:27.903Z,55.53
2022-12-26T16:59:04.788Z,49.40
2022-12-26T17:01:34.540Z,58.87
2022-12-26T17:04:06.801Z,66.60
2022-12-26T17:06:37.955Z,66.93
2022-12-26T17:09:28.686Z,70.87
2022-12-26T17:12:00.003Z,73.37
2022-12-26T17:14:31.807Z,72.40
2022-12-26T17:17:02.513Z,60.23
2022-12-26T17:19:33.568Z,64.47
2022-12-26T17:22:28.177Z,59.03
2022-12-26T17:25:26.319Z,58.33
2022-12-26T17:28:29.543Z,52.30
2022-12-26T17:31:24.897Z,54.17
2022-12-26T17:33:57.254Z,56.47
2022-12-26T17:39:22.950Z,53.53
2022-12-26T17:41:55.502Z,57.03
2022-12-26T17:44:39.638Z,56.37
2022-12-26T17:47:21.697Z,53.97
2022-12-26T17:49:51.702Z,54.60
2022-12-26T17:52:23.118Z,58.27
2022-12-26T17:54:52.032Z,58.67
2022-12-26T17:57:23.792Z,52.07
2022-12-26T17:59:53.344Z,54.30
2022-12-26T18:02:22.095Z,53.80
2022-12-26T18:04:51.211Z,58.37
2022-12-26T18:07:28.718Z,61.93
2022-12-26T18:09:59.321Z,63.03
2022-12-26T18:12:29.290Z,90.47
2022-12-26T18:15:01.688Z,70.23
2022-12-26T18:17:34.233Z,59.30
2022-12-26T18:20:03.350Z,63.53
2022-12-26T18:22:31.987Z,60.77
2022-12-26T18:25:00.461Z,63.20
2022-12-26T18:27:32.682Z,63.37
2022-12-26T18:30:01.916Z,61.60
2022-12-26T18:32:32.223Z,59.80
2022-12-26T18:35:01.378Z,61.77
2022-12-26T18:37:31.488Z,60.67
2022-12-26T18:40:00.139Z,59.87
2022-12-26T18:42:30.405Z,56.70
2022-12-26T18:44:58.961Z,63.93
2022-12-26T18:47:27.363Z,66.83
2022-12-26T18:49:55.731Z,66.20
2022-12-26T18:52:24.127Z,69.00
2022-12-26T18:54:52.540Z,67.80
2022-12-26T18:57:21.768Z,74.03
2022-12-26T18:59:51.551Z,58.57
2022-12-26T19:02:21.246Z,57.10
2022-12-26T19:04:50.991Z,58.33
2022-12-26T19:07:21.222Z,56.40
2022-12-26T19:09:54.918Z,56.47
2022-12-26T19:12:24.517Z,56.30
2022-12-26T19:14:54.629Z,56.57
2022-12-26T19:17:23.000Z,56.53
2022-12-26T19:19:51.298Z,59.70
2022-12-26T19:22:19.778Z,61.23
2022-12-26T19:24:48.281Z,59.17
2022-12-26T19:27:16.722Z,60.77
2022-12-26T19:29:45.265Z,57.47
2022-12-26T19:32:15.076Z,61.27
2022-12-26T19:34:43.733Z,61.43
2022-12-26T19:37:12.046Z,61.47
2022-12-26T19:39:40.400Z,58.33
2022-12-26T19:42:08.740Z,62.37
2022-12-26T19:44:37.211Z,59.80
2022-12-26T19:47:12.406Z,59.53
2022-12-26T19:49:43.081Z,61.00
2022-12-26T19:52:12.254Z,60.17
2022-12-26T19:54:40.703Z,57.60
2022-12-26T19:57:09.725Z,57.73
2022-12-26T19:59:39.518Z,57.90
2022-12-26T20:02:08.334Z,58.50
2022-12-26T20:04:36.843Z,62.30
2022-12-26T20:07:06.801Z,62.90
2022-12-26T20:09:35.344Z,63.13
2022-12-26T20:12:03.750Z,60.97
2022-12-26T20:14:32.652Z,56.70
2022-12-26T20:17:05.479Z,56.30
2022-12-26T20:19:36.557Z,58.07
2022-12-26T20:22:07.412Z,56.83
2022-12-26T20:24:36.077Z,56.30
2022-12-26T20:27:04.897Z,58.80
2022-12-26T20:29:33.599Z,57.00
2022-12-26T20:32:01.994Z,61.70
2022-12-26T20:34:30.473Z,61.67
2022-12-26T20:36:58.958Z,62.17
2022-12-26T20:39:29.025Z,60.90
2022-12-26T20:41:57.608Z,61.23
2022-12-26T20:44:26.156Z,62.57
2022-12-26T20:46:54.619Z,59.60
2022-12-26T20:49:23.152Z,61.63
2022-12-26T20:51:51.654Z,65.47
2022-12-26T20:54:20.594Z,68.13
2022-12-26T20:56:50.406Z,63.70
2022-12-26T20:59:19.017Z,64.77
2022-12-26T21:01:47.867Z,63.87
2022-12-26T21:04:19.863Z,58.87
2022-12-26T21:06:50.425Z,63.40
2022-12-26T21:09:18.955Z,62.17
2022-12-26T21:11:47.364Z,61.73
2022-12-26T21:14:19.519Z,61.67
2022-12-26T21:16:53.029Z,62.60
2022-12-26T21:19:22.117Z,60.60
2022-12-26T21:21:52.948Z,59.80
2022-12-26T21:24:24.008Z,61.47
2022-12-26T21:26:52.825Z,59.50
2022-12-26T21:29:26.346Z,61.17
2022-12-26T21:31:55.787Z,59.73
2022-12-26T21:34:27.262Z,58.93
2022-12-26T21:37:13.566Z,59.03
2022-12-26T21:39:43.087Z,57.50
2022-12-26T21:42:12.810Z,62.40
2022-12-26T21:44:42.913Z,62.80
2022-12-26T21:47:11.343Z,59.10
2022-12-26T21:49:39.881Z,63.37
2022-12-26T21:52:09.626Z,61.67
2022-12-26T21:54:59.728Z,60.07
2022-12-26T21:57:30.759Z,63.10
2022-12-26T22:00:01.901Z,64.60
2022-12-26T22:02:52.997Z,62.87
2022-12-26T22:05:26.017Z,62.93
2022-12-26T22:07:59.653Z,63.00
2022-12-26T22:10:48.292Z,64.50
2022-12-26T22:13:17.661Z,57.80
2022-12-26T22:16:08.210Z,60.20
2022-12-26T22:18:39.717Z,57.20
2022-12-26T22:21:11.986Z,59.37
2022-12-26T22:23:41.941Z,63.30
2022-12-26T22:26:13.198Z,60.70
2022-12-26T22:28:42.974Z,62.23
2022-12-26T22:31:20.478Z,59.80
2022-12-26T22:33:49.337Z,60.30
2022-12-26T22:36:17.972Z,58.03
2022-12-26T22:38:46.647Z,60.10
2022-12-26T22:41:15.908Z,59.60
2022-12-26T22:43:45.367Z,56.83
2022-12-26T22:46:15.016Z,56.80
2022-12-26T22:51:49.266Z,55.60
2022-12-26T22:54:17.668Z,57.93
2022-12-26T22:56:48.371Z,58.20
2022-12-26T22:59:41.263Z,59.27
2022-12-26T23:02:05.617Z,58.67
2022-12-26T23:04:34.385Z,58.77
2022-12-26T23:07:04.653Z,64.70
2022-12-26T23:09:33.405Z,63.50
2022-12-26T23:12:20.028Z,66.57
2022-12-26T23:14:49.192Z,65.40
2022-12-26T23:17:34.431Z,64.47
2022-12-26T23:20:27.538Z,62.37
2022-12-26T23:22:57.864Z,63.43
2022-12-26T23:25:26.176Z,61.17
2022-12-26T23:28:12.142Z,63.30
2022-12-26T23:30:43.274Z,61.93
2022-12-26T23:33:12.291Z,58.50
2022-12-26T23:35:40.709Z,59.60
2022-12-26T23:38:11.531Z,61.80
2022-12-26T23:40:39.946Z,61.57
2022-12-26T23:43:08.417Z,60.20
2022-12-26T23:45:36.765Z,59.20
2022-12-26T23:48:05.675Z,63.60
2022-12-26T23:50:33.968Z,61.53
2022-12-26T23:53:05.440Z,61.17
2022-12-26T23:55:35.243Z,63.60
2022-12-26T23:58:06.297Z,62.63
